Time,TemperatureF,DewpointF,PressureIn,WindDirection,WindDirectionDegrees,WindSpeedMPH,WindSpeedGustMPH,Humidity,HourlyPrecipIn,Conditions,Clouds,dailyrainin,SoftwareType,DateUTC
2013-08-15 00:00:00,54.8,52.5,30.02,North,355,0.0,8.0,92,0.00,,,0.00,Wunderground v.1.15,2013-08-15 04:00:00,
2013-08-15 00:05:00,54.8,52.8,30.02,North,355,0.0,8.0,93,0.00,,,0.00,Wunderground v.1.15,2013-08-15 04:05:00,
2013-08-15 00:10:00,54.7,52.7,30.02,North,355,0.0,8.0,93,0.00,,,0.00,Wunderground v.1.15,2013-08-15 04:10:00,
2013-08-15 00:15:00,54.6,52.6,30.02,North,355,0.0,8.0,93,0.00,,,0.00,Wunderground v.1.15,2013-08-15 04:15:00,
2013-08-15 00:20:00,54.4,52.1,30.02,North,355,0.0,8.0,92,0.00,,,0.00,Wunderground v.1.15,2013-08-15 04:20:00,
2013-08-15 00:25:00,54.2,51.9,30.02,North,355,0.0,8.0,92,0.00,,,0.00,Wunderground v.1.15,2013-08-15 04:25:00,
2013-08-15 00:30:00,53.9,51.9,30.02,North,355,0.0,8.0,93,0.00,,,0.00,Wunderground v.1.15,2013-08-15 04:30:00,
2013-08-15 00:35:00,53.8,51.8,30.02,North,355,0.0,8.0,93,0.00,,,0.00,Wunderground v.1.15,2013-08-15 04:35:00,
2013-08-15 00:40:00,53.6,51.6,30.03,North,355,0.0,8.0,93,0.00,,,0.00,Wunderground v.1.15,2013-08-15 04:40:00,
2013-08-15 00:45:00,53.4,51.4,30.03,North,355,0.0,8.0,93,0.00,,,0.00,Wunderground v.1.15,2013-08-15 04:45:00,
2013-08-15 00:50:00,53.2,51.5,30.03,North,355,0.0,8.0,94,0.00,,,0.00,Wunderground v.1.15,2013-08-15 04:50:00,
2013-08-15 00:55:00,53.1,51.4,30.03,North,355,0.0,8.0,94,0.00,,,0.00,Wunderground v.1.15,2013-08-15 04:55:00,
2013-08-15 01:00:00,52.9,51.2,30.03,North,355,0.0,8.0,94,0.00,,,0.00,Wunderground v.1.15,2013-08-15 05:00:00,
2013-08-15 01:05:00,52.9,51.5,30.03,North,355,0.0,8.0,95,0.00,,,0.00,Wunderground v.1.15,2013-08-15 05:05:00,
2013-08-15 01:10:00,52.9,51.5,30.03,North,355,0.0,8.0,95,0.00,,,0.00,Wunderground v.1.15,2013-08-15 05:10:00,
2013-08-15 01:15:00,52.8,51.4,30.03,North,355,0.0,8.0,95,0.00,,,0.00,Wunderground v.1.15,2013-08-15 05:15:00,
2013-08-15 01:25:00,52.4,51.0,30.03,North,355,0.0,8.0,95,0.00,,,0.00,Wunderground v.1.15,2013-08-15 05:25:00,
2013-08-15 01:30:00,52.4,51.0,30.03,North,355,0.0,8.0,95,0.00,,,0.00,Wunderground v.1.15,2013-08-15 05:30:00,
2013-08-15 01:35:00,52.4,51.3,30.03,North,355,0.0,8.0,96,0.00,,,0.00,Wunderground v.1.15,2013-08-15 05:35:00,
2013-08-15 01:40:00,52.4,51.3,30.03,North,355,0.0,8.0,96,0.00,,,0.00,Wunderground v.1.15,2013-08-15 05:40:00,
2013-08-15 01:45:00,52.3,50.9,30.03,North,355,0.0,8.0,95,0.00,,,0.00,Wunderground v.1.15,2013-08-15 05:45:00,
2013-08-15 01:50:00,52.3,50.9,30.03,North,355,0.0,8.0,95,0.00,,,0.00,Wunderground v.1.15,2013-08-15 05:50:00,
2013-08-15 01:55:00,52.2,50.8,30.03,North,355,0.0,8.0,95,0.00,,,0.00,Wunderground v.1.15,2013-08-15 05:55:00,
2013-08-15 02:00:00,52.1,50.7,30.04,North,355,0.0,8.0,95,0.00,,,0.00,Wunderground v.1.15,2013-08-15 06:00:00,
2013-08-15 02:05:00,52.0,50.6,30.04,North,355,0.0,8.0,95,0.00,,,0.00,Wunderground v.1.15,2013-08-15 06:05:00,
2013-08-15 02:10:00,51.9,50.5,30.04,North,355,0.0,8.0,95,0.00,,,0.00,Wunderground v.1.15,2013-08-15 06:10:00,
2013-08-15 02:15:00,51.8,50.4,30.04,North,355,0.0,8.0,95,0.00,,,0.00,Wunderground v.1.15,2013-08-15 06:15:00,
2013-08-15 02:25:00,51.7,50.6,30.04,North,355,0.0,8.0,96,0.00,,,0.00,Wunderground v.1.15,2013-08-15 06:25:00,
2013-08-15 02:30:00,51.7,50.6,30.04,North,355,0.0,8.0,96,0.00,,,0.00,Wunderground v.1.15,2013-08-15 06:30:00,
2013-08-15 02:35:00,51.7,50.6,30.04,North,355,0.0,8.0,96,0.00,,,0.00,Wunderground v.1.15,2013-08-15 06:35:00,
2013-08-15 02:40:00,51.6,50.5,30.05,North,355,0.0,8.0,96,0.00,,,0.00,Wunderground v.1.15,2013-08-15 06:40:00,
2013-08-15 02:45:00,51.6,50.5,30.05,North,355,0.0,8.0,96,0.00,,,0.00,Wunderground v.1.15,2013-08-15 06:45:00,
2013-08-15 02:50:00,51.5,50.4,30.05,North,355,0.0,8.0,96,0.00,,,0.00,Wunderground v.1.15,2013-08-15 06:50:00,
2013-08-15 02:55:00,51.5,50.4,30.05,North,355,0.0,8.0,96,0.00,,,0.00,Wunderground v.1.15,2013-08-15 06:55:00,
2013-08-15 03:05:00,51.4,50.3,30.05,North,355,0.0,8.0,96,0.00,,,0.00,Wunderground v.1.15,2013-08-15 07:05:00,
2013-08-15 03:10:00,51.3,50.5,30.05,North,355,0.0,8.0,97,0.00,,,0.00,Wunderground v.1.15,2013-08-15 07:10:00,
2013-08-15 03:20:00,51.2,50.1,30.05,North,355,0.0,8.0,96,0.00,,,0.00,Wunderground v.1.15,2013-08-15 07:20:00,
2013-08-15 03:25:00,51.1,50.0,30.05,North,355,0.0,8.0,96,0.00,,,0.00,Wunderground v.1.15,2013-08-15 07:25:00,
2013-08-15 03:30:00,51.1,50.3,30.05,North,355,0.0,8.0,97,0.00,,,0.00,Wunderground v.1.15,2013-08-15 07:30:00,
2013-08-15 03:40:00,51.1,50.3,30.06,North,355,0.0,8.0,97,0.00,,,0.00,Wunderground v.1.15,2013-08-15 07:40:00,
2013-08-15 03:45:00,51.1,50.3,30.06,North,355,0.0,8.0,97,0.00,,,0.00,Wunderground v.1.15,2013-08-15 07:45:00,
2013-08-15 03:50:00,51.1,50.3,30.06,North,355,0.0,8.0,97,0.00,,,0.00,Wunderground v.1.15,2013-08-15 07:50:00,
2013-08-15 04:00:00,51.0,50.2,30.06,North,355,0.0,8.0,97,0.00,,,0.00,Wunderground v.1.15,2013-08-15 08:00:00,
2013-08-15 04:05:00,51.0,50.2,30.06,North,355,0.0,8.0,97,0.00,,,0.00,Wunderground v.1.15,2013-08-15 08:05:00,
2013-08-15 04:30:00,51.2,50.4,30.06,North,355,0.0,8.0,97,0.00,,,0.00,Wunderground v.1.15,2013-08-15 08:30:00,
2013-08-15 04:35:00,51.1,50.3,30.06,North,355,0.0,8.0,97,0.00,,,0.00,Wunderground v.1.15,2013-08-15 08:35:00,
2013-08-15 04:40:00,51.1,50.3,30.06,North,355,0.0,8.0,97,0.00,,,0.00,Wunderground v.1.15,2013-08-15 08:40:00,
2013-08-15 04:45:00,51.0,49.9,30.06,North,355,0.0,8.0,96,0.00,,,0.00,Wunderground v.1.15,2013-08-15 08:45:00,
2013-08-15 04:50:00,50.8,49.7,30.06,North,355,0.0,8.0,96,0.00,,,0.00,Wunderground v.1.15,2013-08-15 08:50:00,
2013-08-15 04:55:00,50.6,49.8,30.07,North,355,0.0,8.0,97,0.00,,,0.00,Wunderground v.1.15,2013-08-15 08:55:00,
2013-08-15 05:05:00,50.4,49.6,30.07,North,355,0.0,8.0,97,0.00,,,0.00,Wunderground v.1.15,2013-08-15 09:05:00,
2013-08-15 05:10:00,50.3,49.5,30.07,North,355,0.0,8.0,97,0.00,,,0.00,Wunderground v.1.15,2013-08-15 09:10:00,
2013-08-15 05:15:00,50.1,49.3,30.07,North,355,0.0,8.0,97,0.00,,,0.00,Wunderground v.1.15,2013-08-15 09:15:00,
2013-08-15 05:20:00,50.0,49.2,30.07,North,355,0.0,8.0,97,0.00,,,0.00,Wunderground v.1.15,2013-08-15 09:20:00,
2013-08-15 05:25:00,49.9,49.1,30.07,North,355,0.0,8.0,97,0.00,,,0.00,Wunderground v.1.15,2013-08-15 09:25:00,
2013-08-15 05:30:00,49.8,49.0,30.07,North,355,0.0,8.0,97,0.00,,,0.00,Wunderground v.1.15,2013-08-15 09:30:00,
2013-08-15 05:35:00,49.7,48.9,30.07,North,355,0.0,8.0,97,0.00,,,0.00,Wunderground v.1.15,2013-08-15 09:35:00,
2013-08-15 05:45:00,49.8,49.3,30.08,North,355,0.0,8.0,98,0.00,,,0.00,Wunderground v.1.15,2013-08-15 09:45:00,
2013-08-15 05:55:00,49.8,49.3,30.08,North,355,0.0,8.0,98,0.00,,,0.00,Wunderground v.1.15,2013-08-15 09:55:00,
2013-08-15 06:00:00,49.9,49.4,30.08,North,355,0.0,8.0,98,0.00,,,0.00,Wunderground v.1.15,2013-08-15 10:00:00,
2013-08-15 06:05:00,50.0,49.5,30.08,North,355,0.0,8.0,98,0.00,,,0.00,Wunderground v.1.15,2013-08-15 10:05:00,
2013-08-15 06:10:00,50.0,49.5,30.08,North,355,0.0,8.0,98,0.00,,,0.00,Wunderground v.1.15,2013-08-15 10:10:00,
2013-08-15 06:15:00,50.1,49.6,30.09,North,355,0.0,8.0,98,0.00,,,0.00,Wunderground v.1.15,2013-08-15 10:15:00,
2013-08-15 06:25:00,50.2,49.7,30.09,North,355,0.0,8.0,98,0.00,,,0.00,Wunderground v.1.15,2013-08-15 10:25:00,
2013-08-15 06:30:00,50.3,49.8,30.09,North,355,0.0,8.0,98,0.00,,,0.00,Wunderground v.1.15,2013-08-15 10:30:00,
2013-08-15 06:35:00,50.3,49.8,30.09,North,355,0.0,8.0,98,0.00,,,0.00,Wunderground v.1.15,2013-08-15 10:35:00,
2013-08-15 06:40:00,50.2,49.7,30.10,North,355,0.0,8.0,98,0.00,,,0.00,Wunderground v.1.15,2013-08-15 10:40:00,
2013-08-15 06:45:00,50.1,49.6,30.09,North,355,0.0,8.0,98,0.00,,,0.00,Wunderground v.1.15,2013-08-15 10:45:00,
2013-08-15 06:50:00,50.3,49.8,30.09,North,355,0.0,8.0,98,0.00,,,0.00,Wunderground v.1.15,2013-08-15 10:50:00,
2013-08-15 06:55:00,50.6,50.3,30.10,North,355,0.0,8.0,99,0.00,,,0.00,Wunderground v.1.15,2013-08-15 10:55:00,
2013-08-15 07:00:00,51.4,51.1,30.10,North,355,0.0,8.0,99,0.00,,,0.00,Wunderground v.1.15,2013-08-15 11:00:00,
2013-08-15 07:10:00,53.1,52.0,30.10,North,355,0.0,8.0,96,0.00,,,0.00,Wunderground v.1.15,2013-08-15 11:10:00,
2013-08-15 07:15:00,54.0,52.3,30.10,North,355,0.0,8.0,94,0.00,,,0.00,Wunderground v.1.15,2013-08-15 11:15:00,
2013-08-15 07:20:00,54.7,52.4,30.10,North,355,0.0,8.0,92,0.00,,,0.00,Wunderground v.1.15,2013-08-15 11:20:00,
2013-08-15 07:25:00,55.1,52.2,30.10,North,355,0.0,8.0,90,0.00,,,0.00,Wunderground v.1.15,2013-08-15 11:25:00,
2013-08-15 07:30:00,55.5,52.3,30.10,North,355,0.0,8.0,89,0.00,,,0.00,Wunderground v.1.15,2013-08-15 11:30:00,
2013-08-15 07:35:00,55.6,53.0,30.10,North,355,0.0,8.0,91,0.00,,,0.00,Wunderground v.1.15,2013-08-15 11:35:00,
2013-08-15 07:40:00,55.5,52.9,30.10,North,355,0.0,8.0,91,0.00,,,0.00,Wunderground v.1.15,2013-08-15 11:40:00,
2013-08-15 07:45:00,55.5,53.2,30.10,North,355,0.0,8.0,92,0.00,,,0.00,Wunderground v.1.15,2013-08-15 11:45:00,
2013-08-15 07:55:00,56.3,54.0,30.11,North,355,0.0,8.0,92,0.00,,,0.00,Wunderground v.1.15,2013-08-15 11:55:00,
2013-08-15 08:00:00,57.1,54.2,30.11,North,355,0.0,8.0,90,0.00,,,0.00,Wunderground v.1.15,2013-08-15 12:00:00,
2013-08-15 08:10:00,59.2,54.4,30.11,North,355,0.0,8.0,84,0.00,,,0.00,Wunderground v.1.15,2013-08-15 12:10:00,
2013-08-15 08:15:00,60.3,54.4,30.11,North,355,0.0,8.0,81,0.00,,,0.00,Wunderground v.1.15,2013-08-15 12:15:00,
2013-08-15 08:20:00,61.3,55.4,30.11,North,355,0.0,8.0,81,0.00,,,0.00,Wunderground v.1.15,2013-08-15 12:20:00,
2013-08-15 08:25:00,62.1,55.2,30.11,North,355,0.0,8.0,78,0.00,,,0.00,Wunderground v.1.15,2013-08-15 12:25:00,
2013-08-15 08:30:00,62.9,55.9,30.11,North,355,0.0,8.0,78,0.00,,,0.00,Wunderground v.1.15,2013-08-15 12:30:00,
2013-08-15 08:40:00,64.3,55.8,30.11,NNW,348,0.0,8.0,74,0.00,,,0.00,Wunderground v.1.15,2013-08-15 12:40:00,
2013-08-15 08:45:00,64.9,56.8,30.11,NNW,348,0.0,8.0,75,0.00,,,0.00,Wunderground v.1.15,2013-08-15 12:45:00,
2013-08-15 08:50:00,65.6,56.3,30.11,NNW,348,0.0,8.0,72,0.00,,,0.00,Wunderground v.1.15,2013-08-15 12:50:00,
2013-08-15 08:55:00,65.9,56.6,30.11,NNW,348,0.0,8.0,72,0.00,,,0.00,Wunderground v.1.15,2013-08-15 12:55:00,
2013-08-15 09:00:00,66.2,56.5,30.11,North,360,0.0,8.0,71,0.00,,,0.00,Wunderground v.1.15,2013-08-15 13:00:00,
2013-08-15 09:05:00,66.6,57.3,30.11,North,360,0.0,8.0,72,0.00,,,0.00,Wunderground v.1.15,2013-08-15 13:05:00,
2013-08-15 09:10:00,66.9,56.4,30.11,North,5,0.0,8.0,69,0.00,,,0.00,Wunderground v.1.15,2013-08-15 13:10:00,
2013-08-15 09:15:00,67.2,57.1,30.11,North,5,0.0,8.0,70,0.00,,,0.00,Wunderground v.1.15,2013-08-15 13:15:00,
2013-08-15 09:25:00,67.9,56.9,30.11,NE,51,0.0,8.0,68,0.00,,,0.00,Wunderground v.1.15,2013-08-15 13:25:00,
2013-08-15 09:30:00,68.1,57.1,30.11,NE,46,0.0,8.0,68,0.00,,,0.00,Wunderground v.1.15,2013-08-15 13:30:00,
2013-08-15 09:35:00,68.2,57.6,30.11,NE,47,0.0,8.0,69,0.00,,,0.00,Wunderground v.1.15,2013-08-15 13:35:00,
2013-08-15 09:45:00,68.7,58.1,30.11,NE,37,0.0,8.0,69,0.00,,,0.00,Wunderground v.1.15,2013-08-15 13:45:00,
2013-08-15 09:50:00,68.4,57.0,30.11,NE,53,1.0,8.0,67,0.00,,,0.00,Wunderground v.1.15,2013-08-15 13:50:00,
2013-08-15 09:55:00,68.2,58.4,30.12,NNE,30,1.0,8.0,71,0.00,,,0.00,Wunderground v.1.15,2013-08-15 13:55:00,
2013-08-15 10:00:00,68.3,56.5,30.12,North,11,1.0,1.0,66,0.00,,,0.00,Wunderground v.1.15,2013-08-15 14:00:00,
2013-08-15 10:10:00,68.3,58.5,30.12,North,349,1.0,1.0,71,0.00,,,0.00,Wunderground v.1.15,2013-08-15 14:10:00,
2013-08-15 10:15:00,68.6,57.6,30.12,NE,44,0.0,8.0,68,0.00,,,0.00,Wunderground v.1.15,2013-08-15 14:15:00,
2013-08-15 10:20:00,69.0,57.2,30.12,NE,49,0.0,8.0,66,0.00,,,0.00,Wunderground v.1.15,2013-08-15 14:20:00,
2013-08-15 10:30:00,69.7,57.8,30.12,NE,47,0.0,8.0,66,0.00,,,0.00,Wunderground v.1.15,2013-08-15 14:30:00,
2013-08-15 10:40:00,70.0,57.7,30.12,East,96,0.0,8.0,65,0.00,,,0.00,Wunderground v.1.15,2013-08-15 14:40:00,
2013-08-15 10:45:00,70.4,59.7,30.12,ESE,110,0.0,8.0,69,0.00,,,0.00,Wunderground v.1.15,2013-08-15 14:45:00,
2013-08-15 17:20:00,67.2,55.0,30.06,East,92,0.0,8.0,65,0.00,,,0.00,Wunderground v.1.15,2013-08-15 21:20:00,
2013-08-15 17:30:00,67.3,58.7,30.06,North,5,0.0,8.0,74,0.00,,,0.00,Wunderground v.1.15,2013-08-15 21:30:00,
2013-08-15 17:35:00,67.2,55.9,30.06,North,5,0.0,8.0,67,0.00,,,0.00,Wunderground v.1.15,2013-08-15 21:35:00,
2013-08-15 17:50:00,67.4,56.5,30.07,North,355,0.0,8.0,68,0.00,,,0.00,Wunderground v.1.15,2013-08-15 21:50:00,
2013-08-15 18:00:00,67.2,54.6,30.07,North,355,0.0,8.0,64,0.00,,,0.00,Wunderground v.1.15,2013-08-15 22:00:00,
2013-08-15 18:05:00,67.1,56.6,30.07,North,355,0.0,8.0,69,0.00,,,0.00,Wunderground v.1.15,2013-08-15 22:05:00,
2013-08-15 18:10:00,66.9,57.2,30.06,North,355,0.0,8.0,71,0.00,,,0.00,Wunderground v.1.15,2013-08-15 22:10:00,
2013-08-15 18:15:00,66.7,57.4,30.06,North,355,0.0,8.0,72,0.00,,,0.00,Wunderground v.1.15,2013-08-15 22:15:00,
2013-08-15 18:20:00,66.6,58.4,30.06,North,355,0.0,8.0,75,0.00,,,0.00,Wunderground v.1.15,2013-08-15 22:20:00,
2013-08-15 18:25:00,66.4,58.2,30.06,North,355,0.0,8.0,75,0.00,,,0.00,Wunderground v.1.15,2013-08-15 22:25:00,
2013-08-15 18:30:00,66.1,57.2,30.07,North,355,0.0,8.0,73,0.00,,,0.00,Wunderground v.1.15,2013-08-15 22:30:00,
2013-08-15 18:40:00,65.4,56.9,30.07,North,355,0.0,8.0,74,0.00,,,0.00,Wunderground v.1.15,2013-08-15 22:40:00,
2013-08-15 18:50:00,64.8,57.1,30.07,North,355,0.0,8.0,76,0.00,,,0.00,Wunderground v.1.15,2013-08-15 22:50:00,
2013-08-15 18:55:00,64.3,56.9,30.07,North,355,0.0,8.0,77,0.00,,,0.00,Wunderground v.1.15,2013-08-15 22:55:00,
2013-08-15 19:05:00,63.4,56.8,30.07,North,355,0.0,8.0,79,0.00,,,0.00,Wunderground v.1.15,2013-08-15 23:05:00,
2013-08-15 19:10:00,63.0,56.7,30.07,North,355,0.0,8.0,80,0.00,,,0.00,Wunderground v.1.15,2013-08-15 23:10:00,
2013-08-15 19:15:00,62.6,56.0,30.07,North,355,0.0,8.0,79,0.00,,,0.00,Wunderground v.1.15,2013-08-15 23:15:00,
2013-08-15 19:20:00,62.3,56.0,30.08,North,355,0.0,8.0,80,0.00,,,0.00,Wunderground v.1.15,2013-08-15 23:20:00,
2013-08-15 19:25:00,62.0,56.4,30.08,North,355,0.0,8.0,82,0.00,,,0.00,Wunderground v.1.15,2013-08-15 23:25:00,
2013-08-15 19:35:00,61.3,55.4,30.08,North,355,0.0,8.0,81,0.00,,,0.00,Wunderground v.1.15,2013-08-15 23:35:00,
2013-08-15 19:40:00,60.9,55.4,30.09,North,355,0.0,8.0,82,0.00,,,0.00,Wunderground v.1.15,2013-08-15 23:40:00,
2013-08-15 19:45:00,60.7,55.5,30.09,North,355,0.0,8.0,83,0.00,,,0.00,Wunderground v.1.15,2013-08-15 23:45:00,
2013-08-15 19:50:00,60.4,55.5,30.09,North,355,0.0,8.0,84,0.00,,,0.00,Wunderground v.1.15,2013-08-15 23:50:00,
2013-08-15 19:55:00,60.1,55.2,30.09,North,355,0.0,8.0,84,0.00,,,0.00,Wunderground v.1.15,2013-08-15 23:55:00,
2013-08-15 20:10:00,59.2,54.0,30.09,North,355,0.0,8.0,83,0.00,,,0.00,Wunderground v.1.15,2013-08-16 00:10:00,
2013-08-15 20:15:00,58.9,53.7,30.09,North,355,0.0,8.0,83,0.00,,,0.00,Wunderground v.1.15,2013-08-16 00:15:00,
2013-08-15 20:20:00,58.6,53.8,30.09,North,355,0.0,8.0,84,0.00,,,0.00,Wunderground v.1.15,2013-08-16 00:20:00,
2013-08-15 20:25:00,58.4,53.6,30.09,North,355,0.0,8.0,84,0.00,,,0.00,Wunderground v.1.15,2013-08-16 00:25:00,
2013-08-15 20:30:00,58.2,53.7,30.10,North,355,0.0,8.0,85,0.00,,,0.00,Wunderground v.1.15,2013-08-16 00:30:00,
2013-08-15 20:35:00,58.0,53.5,30.10,North,355,0.0,8.0,85,0.00,,,0.00,Wunderground v.1.15,2013-08-16 00:35:00,
2013-08-15 20:40:00,57.8,54.0,30.10,North,355,0.0,8.0,87,0.00,,,0.00,Wunderground v.1.15,2013-08-16 00:40:00,
2013-08-15 20:50:00,57.5,53.7,30.11,North,355,0.0,8.0,87,0.00,,,0.00,Wunderground v.1.15,2013-08-16 00:50:00,
2013-08-15 20:55:00,57.3,53.8,30.11,North,355,0.0,8.0,88,0.00,,,0.00,Wunderground v.1.15,2013-08-16 00:55:00,
2013-08-15 21:00:00,57.2,54.0,30.11,North,355,0.0,8.0,89,0.00,,,0.00,Wunderground v.1.15,2013-08-16 01:00:00,
2013-08-15 21:05:00,57.0,53.8,30.12,North,355,0.0,8.0,89,0.00,,,0.00,Wunderground v.1.15,2013-08-16 01:05:00,
2013-08-15 21:10:00,56.6,53.4,30.12,North,355,0.0,8.0,89,0.00,,,0.00,Wunderground v.1.15,2013-08-16 01:10:00,
2013-08-15 21:15:00,56.3,53.4,30.12,North,355,0.0,8.0,90,0.00,,,0.00,Wunderground v.1.15,2013-08-16 01:15:00,
2013-08-15 21:25:00,55.9,53.3,30.13,North,355,0.0,8.0,91,0.00,,,0.00,Wunderground v.1.15,2013-08-16 01:25:00,
2013-08-15 21:30:00,55.8,53.5,30.13,North,355,0.0,8.0,92,0.00,,,0.00,Wunderground v.1.15,2013-08-16 01:30:00,
2013-08-15 21:45:00,55.4,52.8,30.13,North,355,0.0,8.0,91,0.00,,,0.00,Wunderground v.1.15,2013-08-16 01:45:00,
2013-08-15 21:50:00,55.3,52.7,30.13,North,355,0.0,8.0,91,0.00,,,0.00,Wunderground v.1.15,2013-08-16 01:50:00,
2013-08-15 21:55:00,55.3,53.0,30.13,North,355,0.0,8.0,92,0.00,,,0.00,Wunderground v.1.15,2013-08-16 01:55:00,
2013-08-15 22:00:00,55.2,52.6,30.13,North,355,0.0,8.0,91,0.00,,,0.00,Wunderground v.1.15,2013-08-16 02:00:00,
2013-08-15 22:05:00,55.1,52.5,30.13,North,355,0.0,8.0,91,0.00,,,0.00,Wunderground v.1.15,2013-08-16 02:05:00,
2013-08-15 22:10:00,55.1,52.8,30.13,North,355,0.0,8.0,92,0.00,,,0.00,Wunderground v.1.15,2013-08-16 02:10:00,
2013-08-15 22:15:00,55.0,52.7,30.13,North,355,0.0,8.0,92,0.00,,,0.00,Wunderground v.1.15,2013-08-16 02:15:00,
2013-08-15 22:20:00,55.0,52.7,30.13,North,355,0.0,8.0,92,0.00,,,0.00,Wunderground v.1.15,2013-08-16 02:20:00,
2013-08-15 22:30:00,54.8,52.5,30.13,North,355,0.0,8.0,92,0.00,,,0.00,Wunderground v.1.15,2013-08-16 02:30:00,
2013-08-15 22:35:00,54.8,52.5,30.13,North,355,0.0,8.0,92,0.00,,,0.00,Wunderground v.1.15,2013-08-16 02:35:00,
2013-08-15 22:40:00,54.8,52.8,30.13,North,355,0.0,8.0,93,0.00,,,0.00,Wunderground v.1.15,2013-08-16 02:40:00,
2013-08-15 22:45:00,54.8,52.8,30.13,North,355,0.0,8.0,93,0.00,,,0.00,Wunderground v.1.15,2013-08-16 02:45:00,
2013-08-15 22:55:00,54.7,52.7,30.13,North,355,0.0,8.0,93,0.00,,,0.00,Wunderground v.1.15,2013-08-16 02:55:00,
2013-08-15 23:00:00,54.6,52.6,30.13,North,355,0.0,8.0,93,0.00,,,0.00,Wunderground v.1.15,2013-08-16 03:00:00,
2013-08-15 23:05:00,54.6,52.6,30.13,North,355,0.0,8.0,93,0.00,,,0.00,Wunderground v.1.15,2013-08-16 03:05:00,
2013-08-15 23:15:00,54.5,52.5,30.14,North,355,0.0,8.0,93,0.00,,,0.00,Wunderground v.1.15,2013-08-16 03:15:00,
2013-08-15 23:20:00,54.4,52.4,30.14,North,355,0.0,8.0,93,0.00,,,0.00,Wunderground v.1.15,2013-08-16 03:20:00,
2013-08-15 23:25:00,54.2,51.9,30.14,North,355,0.0,8.0,92,0.00,,,0.00,Wunderground v.1.15,2013-08-16 03:25:00,
2013-08-15 23:30:00,54.2,52.2,30.14,North,355,0.0,8.0,93,0.00,,,0.00,Wunderground v.1.15,2013-08-16 03:30:00,
2013-08-15 23:40:00,53.9,51.9,30.14,North,355,0.0,8.0,93,0.00,,,0.00,Wunderground v.1.15,2013-08-16 03:40:00,
2013-08-15 23:45:00,53.8,51.8,30.14,North,355,0.0,8.0,93,0.00,,,0.00,Wunderground v.1.15,2013-08-16 03:45:00,
2013-08-15 23:50:00,53.8,51.8,30.14,North,355,0.0,8.0,93,0.00,,,0.00,Wunderground v.1.15,2013-08-16 03:50:00,
2013-08-15 23:55:00,53.7,51.7,30.15,North,355,0.0,8.0,93,0.00,,,0.00,Wunderground v.1.15,2013-08-16 03:55:00,